<?xml version="1.0" encoding="ISO-8859-1"?>
<gpx version="1.1" 
creator="Memory-Map 5.4.2.1089 http://www.memory-map.com"
 xmlns:xsi="http://www.w3.org/2001/XMLSchema-instance"
 xmlns="http://www.topografix.com/GPX/1/1"
 xsi:schemaLocation="http://www.topografix.com/GPX/1/1 http://www.topografix.com/GPX/1/1/gpx.xsd">
<trk>
<name>Table Mountain</name>
<type>Track</type>
<trkseg>
<trkpt lat="51.8586136500" lon="-3.1358236631"><ele>87</ele><time>2012-09-09T09:17:07Z</time></trkpt>
<trkpt lat="51.8585038503" lon="-3.1356833299"><ele>95</ele><time>2012-09-09T09:22:16Z</time></trkpt>
<trkpt lat="51.8583818436" lon="-3.1355655034"><ele>95</ele><time>2012-09-09T09:22:29Z</time></trkpt>
<trkpt lat="51.8582723618" lon="-3.1354121685"><ele>95</ele><time>2012-09-09T09:22:41Z</time></trkpt>
<trkpt lat="51.8581624985" lon="-3.1352745056"><ele>96</ele><time>2012-09-09T09:22:54Z</time></trkpt>
<trkpt lat="51.8580591838" lon="-3.1351206621"><ele>97</ele><time>2012-09-09T09:23:06Z</time></trkpt>
<trkpt lat="51.8581284841" lon="-3.1349313259"><ele>97</ele><time>2012-09-09T09:23:20Z</time></trkpt>
<trkpt lat="51.8582405090" lon="-3.1348101616"><ele>98</ele><time>2012-09-09T09:23:35Z</time></trkpt>
<trkpt lat="51.8583753586" lon="-3.1347256660"><ele>99</ele><time>2012-09-09T09:23:48Z</time></trkpt>
<trkpt lat="51.8584931691" lon="-3.1346030076"><ele>99</ele><time>2012-09-09T09:24:02Z</time></trkpt>
<trkpt lat="51.8586125056" lon="-3.1344824950"><ele>100</ele><time>2012-09-09T09:24:17Z</time></trkpt>
<trkpt lat="51.8587249756" lon="-3.1343433380"><ele>100</ele><time>2012-09-09T09:24:31Z</time></trkpt>
<trkpt lat="51.8588493347" lon="-3.1342266719"><ele>100</ele><time>2012-09-09T09:24:42Z</time></trkpt>
<trkpt lat="51.8589523315" lon="-3.1340663274"><ele>101</ele><time>2012-09-09T09:24:54Z</time></trkpt>
<trkpt lat="51.8590221405" lon="-3.1338659922"><ele>101</ele><time>2012-09-09T09:25:06Z</time></trkpt>
<trkpt lat="51.8590300242" lon="-3.1336433411"><ele>102</ele><time>2012-09-09T09:25:20Z</time></trkpt>
<trkpt lat="51.8589649836" lon="-3.1334511598"><ele>102</ele><time>2012-09-09T09:25:30Z</time></trkpt>
<trkpt lat="51.8588750203" lon="-3.1332756678"><ele>103</ele><time>2012-09-09T09:25:42Z</time></trkpt>
<trkpt lat="51.8587716420" lon="-3.1331221660"><ele>104</ele><time>2012-09-09T09:25:54Z</time></trkpt>
<trkpt lat="51.8586788177" lon="-3.1329496702"><ele>105</ele><time>2012-09-09T09:26:07Z</time></trkpt>
<trkpt lat="51.8585955302" lon="-3.1327685038"><ele>106</ele><time>2012-09-09T09:26:19Z</time></trkpt>
<trkpt lat="51.8585119883" lon="-3.1325956662"><ele>107</ele><time>2012-09-09T09:26:31Z</time></trkpt>
<trkpt lat="51.8584145228" lon="-3.1324074984"><ele>108</ele><time>2012-09-09T09:26:45Z</time></trkpt>
<trkpt lat="51.8583726883" lon="-3.1321815014"><ele>109</ele><time>2012-09-09T09:26:57Z</time></trkpt>
<trkpt lat="51.8583625158" lon="-3.1319468339"><ele>111</ele><time>2012-09-09T09:27:12Z</time></trkpt>
<trkpt lat="51.8584493637" lon="-3.1317688306"><ele>112</ele><time>2012-09-09T09:27:27Z</time></trkpt>
<trkpt lat="51.8585936864" lon="-3.1317561706"><ele>113</ele><time>2012-09-09T09:27:44Z</time></trkpt>
<trkpt lat="51.8587323507" lon="-3.1317691644"><ele>113</ele><time>2012-09-09T09:27:57Z</time></trkpt>
<trkpt lat="51.8588678360" lon="-3.1318056663"><ele>114</ele><time>2012-09-09T09:28:13Z</time></trkpt>
<trkpt lat="51.8590138117" lon="-3.1318058332"><ele>114</ele><time>2012-09-09T09:28:25Z</time></trkpt>
<trkpt lat="51.8591499964" lon="-3.1317728360"><ele>114</ele><time>2012-09-09T09:28:35Z</time></trkpt>
<trkpt lat="51.8592955271" lon="-3.1317801634"><ele>114</ele><time>2012-09-09T09:28:49Z</time></trkpt>
<trkpt lat="51.8594394684" lon="-3.1317826668"><ele>115</ele><time>2012-09-09T09:29:00Z</time></trkpt>
<trkpt lat="51.8595798492" lon="-3.1317791700"><ele>116</ele><time>2012-09-09T09:29:11Z</time></trkpt>
<trkpt lat="51.8597226461" lon="-3.1317821662"><ele>117</ele><time>2012-09-09T09:29:21Z</time></trkpt>
<trkpt lat="51.8598728180" lon="-3.1317671696"><ele>118</ele><time>2012-09-09T09:29:37Z</time></trkpt>
<trkpt lat="51.8600226720" lon="-3.1317595005"><ele>119</ele><time>2012-09-09T09:29:48Z</time></trkpt>
<trkpt lat="51.8601750056" lon="-3.1317639987"><ele>120</ele><time>2012-09-09T09:29:59Z</time></trkpt>
<trkpt lat="51.8603213628" lon="-3.1317596674"><ele>121</ele><time>2012-09-09T09:30:11Z</time></trkpt>
<trkpt lat="51.8604563395" lon="-3.1317216635"><ele>121</ele><time>2012-09-09T09:30:22Z</time></trkpt>
<trkpt lat="51.8605923335" lon="-3.1316878319"><ele>122</ele><time>2012-09-09T09:30:32Z</time></trkpt>
<trkpt lat="51.8607336680" lon="-3.1317181667"><ele>122</ele><time>2012-09-09T09:30:45Z</time></trkpt>
<trkpt lat="51.8608743032" lon="-3.1317128340"><ele>123</ele><time>2012-09-09T09:30:58Z</time></trkpt>
<trkpt lat="51.8610183080" lon="-3.1317333301"><ele>124</ele><time>2012-09-09T09:31:12Z</time></trkpt>
<trkpt lat="51.8611553192" lon="-3.1317414999"><ele>126</ele><time>2012-09-09T09:31:24Z</time></trkpt>
<trkpt lat="51.8612984975" lon="-3.1317226648"><ele>127</ele><time>2012-09-09T09:31:38Z</time></trkpt>
<trkpt lat="51.8614409765" lon="-3.1316785018"><ele>128</ele><time>2012-09-09T09:31:50Z</time></trkpt>
<trkpt lat="51.8615818024" lon="-3.1316831668"><ele>130</ele><time>2012-09-09T09:32:01Z</time></trkpt>
<trkpt lat="51.8617434820" lon="-3.1317059994"><ele>131</ele><time>2012-09-09T09:32:11Z</time></trkpt>
<trkpt lat="51.8618790309" lon="-3.1316941659"><ele>132</ele><time>2012-09-09T09:32:23Z</time></trkpt>
<trkpt lat="51.8620263418" lon="-3.1316743294"><ele>133</ele><time>2012-09-09T09:32:38Z</time></trkpt>
<trkpt lat="51.8621778488" lon="-3.1316318353"><ele>134</ele><time>2012-09-09T09:32:48Z</time></trkpt>
<trkpt lat="51.8623216629" lon="-3.1316033363"><ele>136</ele><time>2012-09-09T09:33:00Z</time></trkpt>
<trkpt lat="51.8624539693" lon="-3.1315550009"><ele>136</ele><time>2012-09-09T09:33:11Z</time></trkpt>
<trkpt lat="51.8626113256" lon="-3.1315488338"><ele>137</ele><time>2012-09-09T09:33:21Z</time></trkpt>
<trkpt lat="51.8627488454" lon="-3.1315049966"><ele>137</ele><time>2012-09-09T09:33:31Z</time></trkpt>
<trkpt lat="51.8628871918" lon="-3.1314325015"><ele>138</ele><time>2012-09-09T09:33:42Z</time></trkpt>
<trkpt lat="51.8630236944" lon="-3.1314116637"><ele>139</ele><time>2012-09-09T09:33:53Z</time></trkpt>
<trkpt lat="51.8631605148" lon="-3.1313986699"><ele>140</ele><time>2012-09-09T09:34:06Z</time></trkpt>
<trkpt lat="51.8632748286" lon="-3.1312658310"><ele>141</ele><time>2012-09-09T09:34:49Z</time></trkpt>
<trkpt lat="51.8634138107" lon="-3.1312618335"><ele>142</ele><time>2012-09-09T09:35:01Z</time></trkpt>
<trkpt lat="51.8635521571" lon="-3.1312638362"><ele>142</ele><time>2012-09-09T09:35:12Z</time></trkpt>
<trkpt lat="51.8636880239" lon="-3.1312290033"><ele>143</ele><time>2012-09-09T09:35:23Z</time></trkpt>
<trkpt lat="51.8638230006" lon="-3.1311909993"><ele>143</ele><time>2012-09-09T09:35:40Z</time></trkpt>
<trkpt lat="51.8639658610" lon="-3.1311695019"><ele>144</ele><time>2012-09-09T09:35:52Z</time></trkpt>
<trkpt lat="51.8641105016" lon="-3.1311411699"><ele>145</ele><time>2012-09-09T09:36:05Z</time></trkpt>
<trkpt lat="51.8642508189" lon="-3.1311263323"><ele>145</ele><time>2012-09-09T09:36:17Z</time></trkpt>
<trkpt lat="51.8643963496" lon="-3.1311091661"><ele>146</ele><time>2012-09-09T09:36:30Z</time></trkpt>
<trkpt lat="51.8645350138" lon="-3.1310909986"><ele>147</ele><time>2012-09-09T09:36:42Z</time></trkpt>
<trkpt lat="51.8646710078" lon="-3.1310420036"><ele>148</ele><time>2012-09-09T09:36:53Z</time></trkpt>
<trkpt lat="51.8648036957" lon="-3.1310033321"><ele>149</ele><time>2012-09-09T09:37:05Z</time></trkpt>
<trkpt lat="51.8649483363" lon="-3.1309611638"><ele>149</ele><time>2012-09-09T09:37:17Z</time></trkpt>
<trkpt lat="51.8650823593" lon="-3.1309196631"><ele>150</ele><time>2012-09-09T09:37:29Z</time></trkpt>
<trkpt lat="51.8652135213" lon="-3.1308674971"><ele>151</ele><time>2012-09-09T09:37:43Z</time></trkpt>
<trkpt lat="51.8653388341" lon="-3.1307610035"><ele>151</ele><time>2012-09-09T09:37:55Z</time></trkpt>
<trkpt lat="51.8654756546" lon="-3.1306846698"><ele>151</ele><time>2012-09-09T09:38:07Z</time></trkpt>
<trkpt lat="51.8655839920" lon="-3.1305506706"><ele>151</ele><time>2012-09-09T09:38:25Z</time></trkpt>
<trkpt lat="51.8656930288" lon="-3.1304113309"><ele>152</ele><time>2012-09-09T09:38:39Z</time></trkpt>
<trkpt lat="51.8657995224" lon="-3.1302719990"><ele>153</ele><time>2012-09-09T09:38:53Z</time></trkpt>
<trkpt lat="51.8658966700" lon="-3.1301048358"><ele>155</ele><time>2012-09-09T09:39:15Z</time></trkpt>
<trkpt lat="51.8660055161" lon="-3.1299741666"><ele>156</ele><time>2012-09-09T09:39:27Z</time></trkpt>
<trkpt lat="51.8661138535" lon="-3.1298323313"><ele>158</ele><time>2012-09-09T09:39:38Z</time></trkpt>
<trkpt lat="51.8662093480" lon="-3.1296514988"><ele>160</ele><time>2012-09-09T09:39:53Z</time></trkpt>
<trkpt lat="51.8663185120" lon="-3.1295158307"><ele>161</ele><time>2012-09-09T09:40:05Z</time></trkpt>
<trkpt lat="51.8664651871" lon="-3.1294704994"><ele>162</ele><time>2012-09-09T09:40:15Z</time></trkpt>
<trkpt lat="51.8666044871" lon="-3.1294454972"><ele>163</ele><time>2012-09-09T09:40:45Z</time></trkpt>
<trkpt lat="51.8667361577" lon="-3.1294983308"><ele>165</ele><time>2012-09-09T09:41:02Z</time></trkpt>
<trkpt lat="51.8668755213" lon="-3.1294856628"><ele>166</ele><time>2012-09-09T09:41:12Z</time></trkpt>
<trkpt lat="51.8670104980" lon="-3.1294688304"><ele>167</ele><time>2012-09-09T09:41:35Z</time></trkpt>
<trkpt lat="51.8671545029" lon="-3.1294644992"><ele>168</ele><time>2012-09-09T09:41:47Z</time></trkpt>
<trkpt lat="51.8672993342" lon="-3.1294518312"><ele>169</ele><time>2012-09-09T09:41:59Z</time></trkpt>
<trkpt lat="51.8674404780" lon="-3.1294436693"><ele>170</ele><time>2012-09-09T09:42:11Z</time></trkpt>
<trkpt lat="51.8675786972" lon="-3.1294383367"><ele>171</ele><time>2012-09-09T09:42:22Z</time></trkpt>
<trkpt lat="51.8677208583" lon="-3.1294140021"><ele>172</ele><time>2012-09-09T09:42:36Z</time></trkpt>
<trkpt lat="51.8678630193" lon="-3.1294506629"><ele>172</ele><time>2012-09-09T09:42:49Z</time></trkpt>
<trkpt lat="51.8680000305" lon="-3.1294294993"><ele>173</ele><time>2012-09-09T09:43:00Z</time></trkpt>
<trkpt lat="51.8681353251" lon="-3.1294378360"><ele>173</ele><time>2012-09-09T09:43:11Z</time></trkpt>
<trkpt lat="51.8682833354" lon="-3.1294526656"><ele>174</ele><time>2012-09-09T09:43:23Z</time></trkpt>
<trkpt lat="51.8684203466" lon="-3.1294276635"><ele>175</ele><time>2012-09-09T09:43:35Z</time></trkpt>
<trkpt lat="51.8685621897" lon="-3.1294339975"><ele>178</ele><time>2012-09-09T09:43:46Z</time></trkpt>
<trkpt lat="51.8687019984" lon="-3.1294506629"><ele>179</ele><time>2012-09-09T09:44:01Z</time></trkpt>
<trkpt lat="51.8688409805" lon="-3.1294778347"><ele>180</ele><time>2012-09-09T09:44:12Z</time></trkpt>
<trkpt lat="51.8689744949" lon="-3.1295310020"><ele>181</ele><time>2012-09-09T09:44:25Z</time></trkpt>
<trkpt lat="51.8691190084" lon="-3.1295260032"><ele>182</ele><time>2012-09-09T09:44:41Z</time></trkpt>
<trkpt lat="51.8692676544" lon="-3.1295128345"><ele>183</ele><time>2012-09-09T09:44:58Z</time></trkpt>
<trkpt lat="51.8694046656" lon="-3.1295305014"><ele>184</ele><time>2012-09-09T09:45:14Z</time></trkpt>
<trkpt lat="51.8695378621" lon="-3.1294895013"><ele>187</ele><time>2012-09-09T09:45:41Z</time></trkpt>
<trkpt lat="51.8696809769" lon="-3.1295104980"><ele>188</ele><time>2012-09-09T09:45:55Z</time></trkpt>
<trkpt lat="51.8698268255" lon="-3.1294506629"><ele>190</ele><time>2012-09-09T09:46:08Z</time></trkpt>
<trkpt lat="51.8699120204" lon="-3.1292756637"><ele>196</ele><time>2012-09-09T09:46:28Z</time></trkpt>
<trkpt lat="51.8698830287" lon="-3.1290500005"><ele>197</ele><time>2012-09-09T09:46:40Z</time></trkpt>
<trkpt lat="51.8698525111" lon="-3.1288295031"><ele>198</ele><time>2012-09-09T09:46:55Z</time></trkpt>
<trkpt lat="51.8698479970" lon="-3.1286026637"><ele>199</ele><time>2012-09-09T09:47:09Z</time></trkpt>
<trkpt lat="51.8698275248" lon="-3.1283778350"><ele>200</ele><time>2012-09-09T09:47:22Z</time></trkpt>
<trkpt lat="51.8698160172" lon="-3.1281451702"><ele>200</ele><time>2012-09-09T09:47:35Z</time></trkpt>
<trkpt lat="51.8697739919" lon="-3.1279276689"><ele>201</ele><time>2012-09-09T09:47:47Z</time></trkpt>
<trkpt lat="51.8697629929" lon="-3.1277074973"><ele>201</ele><time>2012-09-09T09:48:07Z</time></trkpt>
<trkpt lat="51.8699063619" lon="-3.1277253310"><ele>201</ele><time>2012-09-09T09:48:35Z</time></trkpt>
<trkpt lat="51.8700326920" lon="-3.1278138320"><ele>202</ele><time>2012-09-09T09:48:50Z</time></trkpt>
<trkpt lat="51.8701684952" lon="-3.1278428316"><ele>202</ele><time>2012-09-09T09:49:04Z</time></trkpt>
<trkpt lat="51.8702955246" lon="-3.1279170036"><ele>202</ele><time>2012-09-09T09:49:17Z</time></trkpt>
<trkpt lat="51.8704264959" lon="-3.1279738347"><ele>202</ele><time>2012-09-09T09:49:30Z</time></trkpt>
<trkpt lat="51.8705651601" lon="-3.1280546665"><ele>202</ele><time>2012-09-09T09:49:46Z</time></trkpt>
<trkpt lat="51.8706941605" lon="-3.1281275034"><ele>204</ele><time>2012-09-09T09:50:03Z</time></trkpt>
<trkpt lat="51.8708300273" lon="-3.1281041702"><ele>206</ele><time>2012-09-09T09:50:21Z</time></trkpt>
<trkpt lat="51.8709763209" lon="-3.1281508366"><ele>207</ele><time>2012-09-09T09:51:00Z</time></trkpt>
<trkpt lat="51.8711068471" lon="-3.1282095035"><ele>209</ele><time>2012-09-09T09:51:18Z</time></trkpt>
<trkpt lat="51.8712455114" lon="-3.1282155037"><ele>211</ele><time>2012-09-09T09:51:37Z</time></trkpt>
<trkpt lat="51.8713804881" lon="-3.1282868306"><ele>213</ele><time>2012-09-09T09:51:52Z</time></trkpt>
<trkpt lat="51.8715136846" lon="-3.1283513308"><ele>214</ele><time>2012-09-09T09:52:06Z</time></trkpt>
<trkpt lat="51.8716538111" lon="-3.1284108321"><ele>215</ele><time>2012-09-09T09:52:22Z</time></trkpt>
<trkpt lat="51.8717906952" lon="-3.1284388304"><ele>217</ele><time>2012-09-09T09:52:34Z</time></trkpt>
<trkpt lat="51.8719311396" lon="-3.1284624974"><ele>219</ele><time>2012-09-09T09:53:04Z</time></trkpt>
<trkpt lat="51.8720653534" lon="-3.1284371694"><ele>222</ele><time>2012-09-09T09:53:35Z</time></trkpt>
<trkpt lat="51.8722089767" lon="-3.1284634988"><ele>223</ele><time>2012-09-09T09:53:46Z</time></trkpt>
<trkpt lat="51.8723513285" lon="-3.1284863313"><ele>224</ele><time>2012-09-09T09:54:00Z</time></trkpt>
<trkpt lat="51.8724893570" lon="-3.1285143296"><ele>225</ele><time>2012-09-09T09:54:17Z</time></trkpt>
<trkpt lat="51.8726281484" lon="-3.1285481691"><ele>226</ele><time>2012-09-09T09:54:32Z</time></trkpt>
<trkpt lat="51.8727554957" lon="-3.1286199967"><ele>228</ele><time>2012-09-09T09:54:51Z</time></trkpt>
<trkpt lat="51.8728918076" lon="-3.1286493301"><ele>230</ele><time>2012-09-09T09:55:11Z</time></trkpt>
<trkpt lat="51.8730215073" lon="-3.1287163337"><ele>231</ele><time>2012-09-09T09:55:29Z</time></trkpt>
<trkpt lat="51.8731555303" lon="-3.1287789981"><ele>237</ele><time>2012-09-09T09:56:08Z</time></trkpt>
<trkpt lat="51.8732891719" lon="-3.1288561662"><ele>239</ele><time>2012-09-09T09:56:32Z</time></trkpt>
<trkpt lat="51.8734251658" lon="-3.1289175034"><ele>242</ele><time>2012-09-09T09:56:54Z</time></trkpt>
<trkpt lat="51.8735626856" lon="-3.1289324999"><ele>245</ele><time>2012-09-09T09:57:16Z</time></trkpt>
<trkpt lat="51.8737084707" lon="-3.1289683342"><ele>248</ele><time>2012-09-09T09:57:36Z</time></trkpt>
<trkpt lat="51.8738503138" lon="-3.1289593299"><ele>252</ele><time>2012-09-09T09:57:58Z</time></trkpt>
<trkpt lat="51.8739819845" lon="-3.1289101680"><ele>266</ele><time>2012-09-09T09:59:08Z</time></trkpt>
<trkpt lat="51.8740884781" lon="-3.1290525039"><ele>268</ele><time>2012-09-09T09:59:32Z</time></trkpt>
<trkpt lat="51.8742059708" lon="-3.1291659991"><ele>269</ele><time>2012-09-09T09:59:46Z</time></trkpt>
<trkpt lat="51.8743331909" lon="-3.1292435010"><ele>270</ele><time>2012-09-09T10:00:02Z</time></trkpt>
<trkpt lat="51.8744681676" lon="-3.1292474985"><ele>273</ele><time>2012-09-09T10:00:22Z</time></trkpt>
<trkpt lat="51.8746083577" lon="-3.1292510033"><ele>274</ele><time>2012-09-09T10:00:40Z</time></trkpt>
<trkpt lat="51.8747444789" lon="-3.1292353312"><ele>276</ele><time>2012-09-09T10:00:59Z</time></trkpt>
<trkpt lat="51.8748793284" lon="-3.1292309999"><ele>278</ele><time>2012-09-09T10:01:16Z</time></trkpt>
<trkpt lat="51.8750153224" lon="-3.1292025010"><ele>279</ele><time>2012-09-09T10:01:35Z</time></trkpt>
<trkpt lat="51.8751550039" lon="-3.1292430003"><ele>288</ele><time>2012-09-09T10:04:11Z</time></trkpt>
<trkpt lat="51.8752875010" lon="-3.1292014996"><ele>292</ele><time>2012-09-09T10:04:32Z</time></trkpt>
<trkpt lat="51.8754233042" lon="-3.1291931629"><ele>295</ele><time>2012-09-09T10:04:47Z</time></trkpt>
<trkpt lat="51.8755583445" lon="-3.1291951656"><ele>299</ele><time>2012-09-09T10:05:13Z</time></trkpt>
<trkpt lat="51.8756828308" lon="-3.1291088343"><ele>308</ele><time>2012-09-09T10:06:15Z</time></trkpt>
<trkpt lat="51.8758213043" lon="-3.1290826639"><ele>309</ele><time>2012-09-09T10:06:44Z</time></trkpt>
<trkpt lat="51.8758456548" lon="-3.1288628340"><ele>312</ele><time>2012-09-09T10:07:20Z</time></trkpt>
<trkpt lat="51.8758928299" lon="-3.1286581675"><ele>313</ele><time>2012-09-09T10:07:40Z</time></trkpt>
<trkpt lat="51.8759234746" lon="-3.1284394979"><ele>313</ele><time>2012-09-09T10:07:56Z</time></trkpt>
<trkpt lat="51.8760121663" lon="-3.1282578309"><ele>314</ele><time>2012-09-09T10:08:13Z</time></trkpt>
<trkpt lat="51.8759855270" lon="-3.1280368328"><ele>315</ele><time>2012-09-09T10:08:29Z</time></trkpt>
<trkpt lat="51.8760121663" lon="-3.1278191646"><ele>316</ele><time>2012-09-09T10:08:50Z</time></trkpt>
<trkpt lat="51.8760154724" lon="-3.1275950034"><ele>316</ele><time>2012-09-09T10:09:02Z</time></trkpt>
<trkpt lat="51.8760963440" lon="-3.1274178346"><ele>320</ele><time>2012-09-09T10:09:51Z</time></trkpt>
<trkpt lat="51.8761451721" lon="-3.1272021691"><ele>322</ele><time>2012-09-09T10:10:08Z</time></trkpt>
<trkpt lat="51.8762439728" lon="-3.1270490011"><ele>323</ele><time>2012-09-09T10:10:20Z</time></trkpt>
<trkpt lat="51.8763253530" lon="-3.1268736680"><ele>324</ele><time>2012-09-09T10:10:34Z</time></trkpt>
<trkpt lat="51.8764015198" lon="-3.1266886632"><ele>325</ele><time>2012-09-09T10:10:49Z</time></trkpt>
<trkpt lat="51.8764909744" lon="-3.1265143315"><ele>327</ele><time>2012-09-09T10:11:04Z</time></trkpt>
<trkpt lat="51.8765485128" lon="-3.1263031642"><ele>330</ele><time>2012-09-09T10:11:24Z</time></trkpt>
<trkpt lat="51.8766493479" lon="-3.1261514982"><ele>333</ele><time>2012-09-09T10:11:42Z</time></trkpt>
<trkpt lat="51.8767203649" lon="-3.1259620031"><ele>337</ele><time>2012-09-09T10:11:59Z</time></trkpt>
<trkpt lat="51.8768181483" lon="-3.1258100033"><ele>341</ele><time>2012-09-09T10:12:28Z</time></trkpt>
<trkpt lat="51.8769216537" lon="-3.1256586631"><ele>343</ele><time>2012-09-09T10:12:40Z</time></trkpt>
<trkpt lat="51.8768974940" lon="-3.1254371643"><ele>345</ele><time>2012-09-09T10:12:51Z</time></trkpt>
<trkpt lat="51.8769998550" lon="-3.1252913316"><ele>347</ele><time>2012-09-09T10:13:02Z</time></trkpt>
<trkpt lat="51.8770913442" lon="-3.1251096646"><ele>348</ele><time>2012-09-09T10:13:15Z</time></trkpt>
<trkpt lat="51.8772066752" lon="-3.1249670029"><ele>351</ele><time>2012-09-09T10:13:28Z</time></trkpt>
<trkpt lat="51.8773014704" lon="-3.1248083353"><ele>353</ele><time>2012-09-09T10:13:44Z</time></trkpt>
<trkpt lat="51.8774051666" lon="-3.1246586641"><ele>354</ele><time>2012-09-09T10:13:59Z</time></trkpt>
<trkpt lat="51.8775091807" lon="-3.1245198329"><ele>356</ele><time>2012-09-09T10:14:15Z</time></trkpt>
<trkpt lat="51.8776338577" lon="-3.1243899981"><ele>359</ele><time>2012-09-09T10:14:31Z</time></trkpt>
<trkpt lat="51.8777628581" lon="-3.1242914995"><ele>361</ele><time>2012-09-09T10:14:44Z</time></trkpt>
<trkpt lat="51.8778855006" lon="-3.1241851648"><ele>362</ele><time>2012-09-09T10:14:57Z</time></trkpt>
<trkpt lat="51.8780255000" lon="-3.1241015037"><ele>364</ele><time>2012-09-09T10:15:10Z</time></trkpt>
<trkpt lat="51.8781566620" lon="-3.1240131696"><ele>367</ele><time>2012-09-09T10:15:23Z</time></trkpt>
<trkpt lat="51.8782913208" lon="-3.1239499966"><ele>369</ele><time>2012-09-09T10:15:35Z</time></trkpt>
<trkpt lat="51.8784293493" lon="-3.1239310026"><ele>371</ele><time>2012-09-09T10:15:47Z</time></trkpt>
<trkpt lat="51.8785728455" lon="-3.1239876668"><ele>373</ele><time>2012-09-09T10:16:00Z</time></trkpt>
<trkpt lat="51.8787013372" lon="-3.1240733306"><ele>376</ele><time>2012-09-09T10:16:15Z</time></trkpt>
<trkpt lat="51.8788295110" lon="-3.1241588354"><ele>378</ele><time>2012-09-09T10:16:31Z</time></trkpt>
<trkpt lat="51.8789445241" lon="-3.1242796659"><ele>380</ele><time>2012-09-09T10:16:47Z</time></trkpt>
<trkpt lat="51.8790634791" lon="-3.1243923346"><ele>382</ele><time>2012-09-09T10:17:09Z</time></trkpt>
<trkpt lat="51.8791841507" lon="-3.1244954983"><ele>384</ele><time>2012-09-09T10:17:26Z</time></trkpt>
<trkpt lat="51.8793091456" lon="-3.1245998303"><ele>389</ele><time>2012-09-09T10:17:51Z</time></trkpt>
<trkpt lat="51.8794348399" lon="-3.1246918360"><ele>392</ele><time>2012-09-09T10:18:07Z</time></trkpt>
<trkpt lat="51.8795543035" lon="-3.1247934977"><ele>397</ele><time>2012-09-09T10:18:32Z</time></trkpt>
<trkpt lat="51.8796845118" lon="-3.1248808304"><ele>402</ele><time>2012-09-09T10:18:59Z</time></trkpt>
<trkpt lat="51.8796793620" lon="-3.1251013358"><ele>415</ele><time>2012-09-09T10:24:53Z</time></trkpt>
<trkpt lat="51.8796943029" lon="-3.1253240029"><ele>417</ele><time>2012-09-09T10:25:15Z</time></trkpt>
<trkpt lat="51.8796274821" lon="-3.1255248308"><ele>421</ele><time>2012-09-09T10:25:44Z</time></trkpt>
<trkpt lat="51.8795051575" lon="-3.1256231705"><ele>423</ele><time>2012-09-09T10:26:08Z</time></trkpt>
<trkpt lat="51.8793874741" lon="-3.1257381678"><ele>427</ele><time>2012-09-09T10:26:38Z</time></trkpt>
<trkpt lat="51.8792505264" lon="-3.1258004983"><ele>430</ele><time>2012-09-09T10:26:58Z</time></trkpt>
<trkpt lat="51.8792336782" lon="-3.1260191679"><ele>433</ele><time>2012-09-09T10:27:24Z</time></trkpt>
<trkpt lat="51.8792416890" lon="-3.1262406667"><ele>438</ele><time>2012-09-09T10:28:13Z</time></trkpt>
<trkpt lat="51.8793141683" lon="-3.1264405012"><ele>439</ele><time>2012-09-09T10:28:27Z</time></trkpt>
<trkpt lat="51.8793618520" lon="-3.1266455015"><ele>440</ele><time>2012-09-09T10:28:39Z</time></trkpt>
<trkpt lat="51.8794396718" lon="-3.1268278360"><ele>442</ele><time>2012-09-09T10:28:51Z</time></trkpt>
<trkpt lat="51.8795441945" lon="-3.1269855022"><ele>449</ele><time>2012-09-09T10:30:09Z</time></trkpt>
<trkpt lat="51.8796703339" lon="-3.1270653327"><ele>450</ele><time>2012-09-09T10:30:22Z</time></trkpt>
<trkpt lat="51.8798018138" lon="-3.1271385034"><ele>451</ele><time>2012-09-09T10:30:37Z</time></trkpt>
<trkpt lat="51.8799435298" lon="-3.1270986636"><ele>456</ele><time>2012-09-09T10:34:45Z</time></trkpt>
<trkpt lat="51.8800686518" lon="-3.1272033294"><ele>455</ele><time>2012-09-09T10:35:06Z</time></trkpt>
<trkpt lat="51.8802078247" lon="-3.1271250010"><ele>453</ele><time>2012-09-09T10:35:29Z</time></trkpt>
<trkpt lat="51.8803413391" lon="-3.1270796696"><ele>451</ele><time>2012-09-09T10:35:46Z</time></trkpt>
<trkpt lat="51.8804901759" lon="-3.1270895004"><ele>449</ele><time>2012-09-09T10:36:02Z</time></trkpt>
<trkpt lat="51.8806271871" lon="-3.1270576636"><ele>448</ele><time>2012-09-09T10:36:12Z</time></trkpt>
<trkpt lat="51.8807600021" lon="-3.1270951668"><ele>444</ele><time>2012-09-09T10:37:37Z</time></trkpt>
<trkpt lat="51.8808813095" lon="-3.1272066673"><ele>442</ele><time>2012-09-09T10:38:19Z</time></trkpt>
<trkpt lat="51.8810121536" lon="-3.1273033301"><ele>442</ele><time>2012-09-09T10:38:33Z</time></trkpt>
<trkpt lat="51.8811458588" lon="-3.1273830016"><ele>442</ele><time>2012-09-09T10:38:46Z</time></trkpt>
<trkpt lat="51.8812743505" lon="-3.1274509986"><ele>442</ele><time>2012-09-09T10:38:59Z</time></trkpt>
<trkpt lat="51.8814101537" lon="-3.1274893363"><ele>442</ele><time>2012-09-09T10:39:12Z</time></trkpt>
<trkpt lat="51.8815488180" lon="-3.1275564988"><ele>442</ele><time>2012-09-09T10:39:31Z</time></trkpt>
<trkpt lat="51.8816769918" lon="-3.1276291688"><ele>442</ele><time>2012-09-09T10:39:53Z</time></trkpt>
<trkpt lat="51.8817885081" lon="-3.1277748346"><ele>444</ele><time>2012-09-09T10:55:47Z</time></trkpt>
<trkpt lat="51.8818993251" lon="-3.1279131651"><ele>444</ele><time>2012-09-09T10:56:01Z</time></trkpt>
<trkpt lat="51.8820119858" lon="-3.1280393362"><ele>445</ele><time>2012-09-09T10:56:17Z</time></trkpt>
<trkpt lat="51.8821121852" lon="-3.1281906684"><ele>445</ele><time>2012-09-09T10:56:36Z</time></trkpt>
<trkpt lat="51.8821800232" lon="-3.1283868313"><ele>445</ele><time>2012-09-09T10:56:48Z</time></trkpt>
<trkpt lat="51.8822673162" lon="-3.1285676638"><ele>446</ele><time>2012-09-09T10:57:02Z</time></trkpt>
<trkpt lat="51.8823586782" lon="-3.1287458340"><ele>447</ele><time>2012-09-09T10:57:16Z</time></trkpt>
<trkpt lat="51.8824534734" lon="-3.1289033333"><ele>447</ele><time>2012-09-09T10:57:41Z</time></trkpt>
<trkpt lat="51.8825413386" lon="-3.1290704966"><ele>448</ele><time>2012-09-09T10:58:03Z</time></trkpt>
<trkpt lat="51.8826291402" lon="-3.1292416652"><ele>449</ele><time>2012-09-09T10:58:18Z</time></trkpt>
<trkpt lat="51.8827041626" lon="-3.1294334968"><ele>449</ele><time>2012-09-09T10:58:32Z</time></trkpt>
<trkpt lat="51.8827258428" lon="-3.1296514988"><ele>449</ele><time>2012-09-09T10:58:45Z</time></trkpt>
<trkpt lat="51.8827166875" lon="-3.1298756679"><ele>449</ele><time>2012-09-09T10:58:59Z</time></trkpt>
<trkpt lat="51.8827031453" lon="-3.1300944964"><ele>449</ele><time>2012-09-09T10:59:11Z</time></trkpt>
<trkpt lat="51.8826738358" lon="-3.1303096692"><ele>449</ele><time>2012-09-09T10:59:29Z</time></trkpt>
<trkpt lat="51.8825591405" lon="-3.1304266691"><ele>448</ele><time>2012-09-09T10:59:48Z</time></trkpt>
<trkpt lat="51.8824416478" lon="-3.1305464983"><ele>448</ele><time>2012-09-09T11:00:05Z</time></trkpt>
<trkpt lat="51.8823350271" lon="-3.1306948344"><ele>446</ele><time>2012-09-09T11:00:21Z</time></trkpt>
<trkpt lat="51.8822431564" lon="-3.1308686654"><ele>445</ele><time>2012-09-09T11:00:35Z</time></trkpt>
<trkpt lat="51.8821296692" lon="-3.1310086648"><ele>443</ele><time>2012-09-09T11:00:48Z</time></trkpt>
<trkpt lat="51.8820413589" lon="-3.1311781645"><ele>440</ele><time>2012-09-09T11:01:09Z</time></trkpt>
<trkpt lat="51.8819741567" lon="-3.1313750029"><ele>439</ele><time>2012-09-09T11:01:26Z</time></trkpt>
<trkpt lat="51.8819666545" lon="-3.1315983295"><ele>435</ele><time>2012-09-09T11:02:02Z</time></trkpt>
<trkpt lat="51.8819573085" lon="-3.1318186680"><ele>434</ele><time>2012-09-09T11:02:20Z</time></trkpt>
<trkpt lat="51.8819725037" lon="-3.1320516666"><ele>432</ele><time>2012-09-09T11:02:36Z</time></trkpt>
<trkpt lat="51.8819864909" lon="-3.1322776635"><ele>432</ele><time>2012-09-09T11:02:49Z</time></trkpt>
<trkpt lat="51.8819706599" lon="-3.1325011651"><ele>430</ele><time>2012-09-09T11:03:06Z</time></trkpt>
<trkpt lat="51.8820568085" lon="-3.1326753298"><ele>428</ele><time>2012-09-09T11:03:31Z</time></trkpt>
<trkpt lat="51.8821211497" lon="-3.1328671694"><ele>425</ele><time>2012-09-09T11:03:51Z</time></trkpt>
<trkpt lat="51.8821814855" lon="-3.1330711683"><ele>423</ele><time>2012-09-09T11:04:11Z</time></trkpt>
<trkpt lat="51.8822528203" lon="-3.1332573334"><ele>421</ele><time>2012-09-09T11:04:25Z</time></trkpt>
<trkpt lat="51.8823376973" lon="-3.1334379991"><ele>419</ele><time>2012-09-09T11:04:42Z</time></trkpt>
<trkpt lat="51.8823799769" lon="-3.1336571693"><ele>418</ele><time>2012-09-09T11:04:58Z</time></trkpt>
<trkpt lat="51.8824595133" lon="-3.1338441690"><ele>417</ele><time>2012-09-09T11:05:10Z</time></trkpt>
<trkpt lat="51.8824996948" lon="-3.1340671698"><ele>415</ele><time>2012-09-09T11:05:24Z</time></trkpt>
<trkpt lat="51.8825093587" lon="-3.1342976729"><ele>414</ele><time>2012-09-09T11:05:38Z</time></trkpt>
<trkpt lat="51.8824781418" lon="-3.1345106602"><ele>412</ele><time>2012-09-09T11:05:52Z</time></trkpt>
<trkpt lat="51.8824764887" lon="-3.1347353299"><ele>410</ele><time>2012-09-09T11:06:08Z</time></trkpt>
<trkpt lat="51.8823823293" lon="-3.1348993301"><ele>408</ele><time>2012-09-09T11:06:24Z</time></trkpt>
<trkpt lat="51.8823003133" lon="-3.1350901604"><ele>406</ele><time>2012-09-09T11:06:36Z</time></trkpt>
<trkpt lat="51.8821756363" lon="-3.1351994991"><ele>403</ele><time>2012-09-09T11:06:51Z</time></trkpt>
<trkpt lat="51.8820610046" lon="-3.1353386720"><ele>399</ele><time>2012-09-09T11:07:15Z</time></trkpt>
<trkpt lat="51.8819641749" lon="-3.1355013371"><ele>397</ele><time>2012-09-09T11:07:39Z</time></trkpt>
<trkpt lat="51.8819309870" lon="-3.1357158343"><ele>394</ele><time>2012-09-09T11:07:54Z</time></trkpt>
<trkpt lat="51.8819256465" lon="-3.1359354973"><ele>392</ele><time>2012-09-09T11:08:09Z</time></trkpt>
<trkpt lat="51.8819321950" lon="-3.1361655076"><ele>390</ele><time>2012-09-09T11:08:26Z</time></trkpt>
<trkpt lat="51.8818546931" lon="-3.1363468329"><ele>388</ele><time>2012-09-09T11:08:41Z</time></trkpt>
<trkpt lat="51.8818318049" lon="-3.1365673383"><ele>385</ele><time>2012-09-09T11:08:54Z</time></trkpt>
<trkpt lat="51.8817820231" lon="-3.1367823283"><ele>381</ele><time>2012-09-09T11:09:12Z</time></trkpt>
<trkpt lat="51.8817926407" lon="-3.1370049953"><ele>378</ele><time>2012-09-09T11:09:32Z</time></trkpt>
<trkpt lat="51.8817336400" lon="-3.1372051716"><ele>374</ele><time>2012-09-09T11:09:55Z</time></trkpt>
<trkpt lat="51.8816346486" lon="-3.1373538335"><ele>372</ele><time>2012-09-09T11:10:10Z</time></trkpt>
<trkpt lat="51.8815076828" lon="-3.1374466737"><ele>369</ele><time>2012-09-09T11:10:38Z</time></trkpt>
<trkpt lat="51.8813704809" lon="-3.1374618371"><ele>366</ele><time>2012-09-09T11:10:54Z</time></trkpt>
<trkpt lat="51.8812381744" lon="-3.1374103387"><ele>363</ele><time>2012-09-09T11:11:14Z</time></trkpt>
<trkpt lat="51.8811618169" lon="-3.1372233391"><ele>360</ele><time>2012-09-09T11:11:35Z</time></trkpt>
<trkpt lat="51.8810506821" lon="-3.1370931625"><ele>358</ele><time>2012-09-09T11:11:46Z</time></trkpt>
<trkpt lat="51.8810639699" lon="-3.1368756612"><ele>352</ele><time>2012-09-09T11:12:09Z</time></trkpt>
<trkpt lat="51.8810515086" lon="-3.1366536617"><ele>350</ele><time>2012-09-09T11:12:28Z</time></trkpt>
<trkpt lat="51.8809211731" lon="-3.1365866661"><ele>349</ele><time>2012-09-09T11:12:40Z</time></trkpt>
<trkpt lat="51.8807760239" lon="-3.1365626653"><ele>348</ele><time>2012-09-09T11:12:54Z</time></trkpt>
<trkpt lat="51.8806626638" lon="-3.1364318371"><ele>346</ele><time>2012-09-09T11:13:18Z</time></trkpt>
<trkpt lat="51.8805648168" lon="-3.1362808386"><ele>341</ele><time>2012-09-09T11:13:52Z</time></trkpt>
<trkpt lat="51.8804448446" lon="-3.1361801624"><ele>339</ele><time>2012-09-09T11:14:32Z</time></trkpt>
<trkpt lat="51.8803040187" lon="-3.1361383279"><ele>338</ele><time>2012-09-09T11:14:46Z</time></trkpt>
<trkpt lat="51.8801743189" lon="-3.1360264937"><ele>337</ele><time>2012-09-09T11:14:58Z</time></trkpt>
<trkpt lat="51.8800613403" lon="-3.1358874957"><ele>336</ele><time>2012-09-09T11:15:09Z</time></trkpt>
<trkpt lat="51.8799511592" lon="-3.1357601643"><ele>335</ele><time>2012-09-09T11:15:21Z</time></trkpt>
<trkpt lat="51.8798373540" lon="-3.1356204987"><ele>334</ele><time>2012-09-09T11:15:34Z</time></trkpt>
<trkpt lat="51.8797243118" lon="-3.1354874929"><ele>333</ele><time>2012-09-09T11:15:48Z</time></trkpt>
<trkpt lat="51.8796106974" lon="-3.1353341738"><ele>332</ele><time>2012-09-09T11:16:00Z</time></trkpt>
<trkpt lat="51.8794901530" lon="-3.1351980050"><ele>331</ele><time>2012-09-09T11:16:12Z</time></trkpt>
<trkpt lat="51.8793715159" lon="-3.1350609938"><ele>330</ele><time>2012-09-09T11:16:24Z</time></trkpt>
<trkpt lat="51.8792538325" lon="-3.1349471728"><ele>329</ele><time>2012-09-09T11:16:36Z</time></trkpt>
<trkpt lat="51.8791313171" lon="-3.1348354975"><ele>329</ele><time>2012-09-09T11:16:47Z</time></trkpt>
<trkpt lat="51.8789974848" lon="-3.1347648303"><ele>328</ele><time>2012-09-09T11:17:00Z</time></trkpt>
<trkpt lat="51.8788728078" lon="-3.1346635024"><ele>327</ele><time>2012-09-09T11:17:13Z</time></trkpt>
<trkpt lat="51.8787303289" lon="-3.1346306642"><ele>326</ele><time>2012-09-09T11:17:26Z</time></trkpt>
<trkpt lat="51.8786013285" lon="-3.1345458349"><ele>325</ele><time>2012-09-09T11:17:40Z</time></trkpt>
<trkpt lat="51.8784753164" lon="-3.1344661713"><ele>324</ele><time>2012-09-09T11:17:54Z</time></trkpt>
<trkpt lat="51.8783416748" lon="-3.1344114939"><ele>323</ele><time>2012-09-09T11:18:06Z</time></trkpt>
<trkpt lat="51.8782105128" lon="-3.1343498389"><ele>322</ele><time>2012-09-09T11:18:18Z</time></trkpt>
<trkpt lat="51.8780733109" lon="-3.1343180021"><ele>322</ele><time>2012-09-09T11:18:32Z</time></trkpt>
<trkpt lat="51.8779371897" lon="-3.1343129953"><ele>321</ele><time>2012-09-09T11:18:43Z</time></trkpt>
<trkpt lat="51.8778291702" lon="-3.1341629982"><ele>317</ele><time>2012-09-09T11:19:16Z</time></trkpt>
<trkpt lat="51.8776878357" lon="-3.1341583411"><ele>317</ele><time>2012-09-09T11:19:30Z</time></trkpt>
<trkpt lat="51.8775470098" lon="-3.1342001597"><ele>316</ele><time>2012-09-09T11:19:44Z</time></trkpt>
<trkpt lat="51.8774281820" lon="-3.1343493303"><ele>315</ele><time>2012-09-09T11:20:02Z</time></trkpt>
<trkpt lat="51.8772919973" lon="-3.1344728311"><ele>314</ele><time>2012-09-09T11:20:14Z</time></trkpt>
<trkpt lat="51.8772018433" lon="-3.1346413294"><ele>312</ele><time>2012-09-09T11:20:30Z</time></trkpt>
<trkpt lat="51.8770633062" lon="-3.1347008387"><ele>309</ele><time>2012-09-09T11:20:52Z</time></trkpt>
<trkpt lat="51.8769200007" lon="-3.1346986612"><ele>307</ele><time>2012-09-09T11:21:05Z</time></trkpt>
<trkpt lat="51.8767858505" lon="-3.1346680005"><ele>306</ele><time>2012-09-09T11:21:15Z</time></trkpt>
<trkpt lat="51.8766574860" lon="-3.1345976671"><ele>305</ele><time>2012-09-09T11:21:29Z</time></trkpt>
<trkpt lat="51.8765098572" lon="-3.1345083396"><ele>302</ele><time>2012-09-09T11:22:04Z</time></trkpt>
<trkpt lat="51.8763726552" lon="-3.1344639937"><ele>301</ele><time>2012-09-09T11:22:16Z</time></trkpt>
<trkpt lat="51.8762325287" lon="-3.1344058355"><ele>300</ele><time>2012-09-09T11:22:26Z</time></trkpt>
<trkpt lat="51.8761004766" lon="-3.1344646613"><ele>299</ele><time>2012-09-09T11:22:38Z</time></trkpt>
<trkpt lat="51.8759673436" lon="-3.1344209989"><ele>296</ele><time>2012-09-09T11:22:53Z</time></trkpt>
<trkpt lat="51.8758301417" lon="-3.1344376723"><ele>295</ele><time>2012-09-09T11:23:04Z</time></trkpt>
<trkpt lat="51.8757093430" lon="-3.1343365033"><ele>290</ele><time>2012-09-09T11:23:39Z</time></trkpt>
<trkpt lat="51.8755593618" lon="-3.1343853315"><ele>288</ele><time>2012-09-09T11:23:55Z</time></trkpt>
<trkpt lat="51.8754250209" lon="-3.1344419956"><ele>286</ele><time>2012-09-09T11:24:07Z</time></trkpt>
<trkpt lat="51.8752215068" lon="-3.1345406691"><ele>284</ele><time>2012-09-09T11:24:17Z</time></trkpt>
<trkpt lat="51.8750815074" lon="-3.1345463276"><ele>280</ele><time>2012-09-09T11:24:37Z</time></trkpt>
<trkpt lat="51.8748638153" lon="-3.1346838315"><ele>279</ele><time>2012-09-09T11:24:47Z</time></trkpt>
<trkpt lat="51.8746053060" lon="-3.1348149935"><ele>279</ele><time>2012-09-09T11:24:57Z</time></trkpt>
<trkpt lat="51.8744846980" lon="-3.1349128405"><ele>279</ele><time>2012-09-09T11:25:09Z</time></trkpt>
<trkpt lat="51.8743471781" lon="-3.1349751631"><ele>278</ele><time>2012-09-09T11:25:26Z</time></trkpt>
<trkpt lat="51.8742116928" lon="-3.1349256674"><ele>277</ele><time>2012-09-09T11:25:45Z</time></trkpt>
<trkpt lat="51.8740688324" lon="-3.1349569956"><ele>276</ele><time>2012-09-09T11:25:56Z</time></trkpt>
<trkpt lat="51.8739268621" lon="-3.1349744956"><ele>275</ele><time>2012-09-09T11:26:06Z</time></trkpt>
<trkpt lat="51.8737926483" lon="-3.1350201607"><ele>275</ele><time>2012-09-09T11:26:16Z</time></trkpt>
<trkpt lat="51.8736481984" lon="-3.1350493272"><ele>273</ele><time>2012-09-09T11:26:38Z</time></trkpt>
<trkpt lat="51.8735048294" lon="-3.1350141684"><ele>271</ele><time>2012-09-09T11:27:00Z</time></trkpt>
<trkpt lat="51.8733474731" lon="-3.1350019932"><ele>270</ele><time>2012-09-09T11:27:10Z</time></trkpt>
<trkpt lat="51.8732840220" lon="-3.1347976685"><ele>266</ele><time>2012-09-09T11:27:30Z</time></trkpt>
<trkpt lat="51.8731778463" lon="-3.1346556664"><ele>264</ele><time>2012-09-09T11:27:47Z</time></trkpt>
<trkpt lat="51.8730475108" lon="-3.1345888297"><ele>262</ele><time>2012-09-09T11:28:02Z</time></trkpt>
<trkpt lat="51.8728973389" lon="-3.1346431732"><ele>261</ele><time>2012-09-09T11:28:18Z</time></trkpt>
<trkpt lat="51.8727104823" lon="-3.1346429984"><ele>260</ele><time>2012-09-09T11:28:28Z</time></trkpt>
<trkpt lat="51.8725325267" lon="-3.1346735001"><ele>260</ele><time>2012-09-09T11:28:38Z</time></trkpt>
<trkpt lat="51.8723966599" lon="-3.1346989950"><ele>260</ele><time>2012-09-09T11:28:50Z</time></trkpt>
<trkpt lat="51.8722518285" lon="-3.1346768379"><ele>259</ele><time>2012-09-09T11:29:10Z</time></trkpt>
<trkpt lat="51.8721178055" lon="-3.1347190062"><ele>258</ele><time>2012-09-09T11:29:20Z</time></trkpt>
<trkpt lat="51.8719833374" lon="-3.1346663316"><ele>257</ele><time>2012-09-09T11:29:39Z</time></trkpt>
<trkpt lat="51.8718326569" lon="-3.1346456687"><ele>256</ele><time>2012-09-09T11:29:49Z</time></trkpt>
<trkpt lat="51.8716964722" lon="-3.1346398354"><ele>255</ele><time>2012-09-09T11:30:03Z</time></trkpt>
<trkpt lat="51.8715191523" lon="-3.1346340020"><ele>253</ele><time>2012-09-09T11:30:13Z</time></trkpt>
<trkpt lat="51.8713778178" lon="-3.1346306642"><ele>252</ele><time>2012-09-09T11:30:23Z</time></trkpt>
<trkpt lat="51.8712710063" lon="-3.1347685019"><ele>250</ele><time>2012-09-09T11:30:50Z</time></trkpt>
<trkpt lat="51.8711618423" lon="-3.1348981698"><ele>248</ele><time>2012-09-09T11:31:04Z</time></trkpt>
<trkpt lat="51.8710275014" lon="-3.1349840005"><ele>247</ele><time>2012-09-09T11:31:14Z</time></trkpt>
<trkpt lat="51.8708921432" lon="-3.1350836595"><ele>246</ele><time>2012-09-09T11:31:24Z</time></trkpt>
<trkpt lat="51.8707741419" lon="-3.1352009932"><ele>244</ele><time>2012-09-09T11:31:36Z</time></trkpt>
<trkpt lat="51.8706439972" lon="-3.1352615039"><ele>241</ele><time>2012-09-09T11:31:48Z</time></trkpt>
<trkpt lat="51.8705238342" lon="-3.1353636742"><ele>239</ele><time>2012-09-09T11:32:00Z</time></trkpt>
<trkpt lat="51.8704008102" lon="-3.1354788303"><ele>237</ele><time>2012-09-09T11:32:14Z</time></trkpt>
<trkpt lat="51.8703236898" lon="-3.1356634935"><ele>230</ele><time>2012-09-09T11:32:53Z</time></trkpt>
<trkpt lat="51.8702128092" lon="-3.1358080069"><ele>229</ele><time>2012-09-09T11:33:13Z</time></trkpt>
<trkpt lat="51.8701311747" lon="-3.1359846592"><ele>227</ele><time>2012-09-09T11:33:30Z</time></trkpt>
<trkpt lat="51.8700284958" lon="-3.1361508369"><ele>223</ele><time>2012-09-09T11:33:53Z</time></trkpt>
<trkpt lat="51.8699373245" lon="-3.1363133272"><ele>221</ele><time>2012-09-09T11:34:07Z</time></trkpt>
<trkpt lat="51.8698436737" lon="-3.1364726702"><ele>218</ele><time>2012-09-09T11:34:22Z</time></trkpt>
<trkpt lat="51.8697594961" lon="-3.1366496722"><ele>214</ele><time>2012-09-09T11:34:39Z</time></trkpt>
<trkpt lat="51.8696570079" lon="-3.1368241628"><ele>212</ele><time>2012-09-09T11:34:53Z</time></trkpt>
<trkpt lat="51.8695393244" lon="-3.1369743347"><ele>209</ele><time>2012-09-09T11:35:07Z</time></trkpt>
<trkpt lat="51.8694106420" lon="-3.1370703379"><ele>206</ele><time>2012-09-09T11:35:20Z</time></trkpt>
<trkpt lat="51.8692788442" lon="-3.1371394952"><ele>204</ele><time>2012-09-09T11:35:32Z</time></trkpt>
<trkpt lat="51.8691548030" lon="-3.1372535070"><ele>201</ele><time>2012-09-09T11:35:47Z</time></trkpt>
<trkpt lat="51.8690429688" lon="-3.1373868306"><ele>199</ele><time>2012-09-09T11:36:31Z</time></trkpt>
<trkpt lat="51.8689021428" lon="-3.1374173323"><ele>197</ele><time>2012-09-09T11:36:42Z</time></trkpt>
<trkpt lat="51.8687746684" lon="-3.1374985059"><ele>194</ele><time>2012-09-09T11:36:53Z</time></trkpt>
<trkpt lat="51.8686379751" lon="-3.1375916640"><ele>190</ele><time>2012-09-09T11:37:05Z</time></trkpt>
<trkpt lat="51.8685156504" lon="-3.1377224922"><ele>183</ele><time>2012-09-09T11:37:26Z</time></trkpt>
<trkpt lat="51.8684061686" lon="-3.1378781637"><ele>179</ele><time>2012-09-09T11:37:38Z</time></trkpt>
<trkpt lat="51.8682843526" lon="-3.1379803340"><ele>175</ele><time>2012-09-09T11:37:48Z</time></trkpt>
<trkpt lat="51.8681685130" lon="-3.1380919933"><ele>172</ele><time>2012-09-09T11:37:59Z</time></trkpt>
<trkpt lat="51.8680536906" lon="-3.1382439931"><ele>170</ele><time>2012-09-09T11:38:11Z</time></trkpt>
<trkpt lat="51.8679283142" lon="-3.1383666674"><ele>167</ele><time>2012-09-09T11:38:23Z</time></trkpt>
<trkpt lat="51.8678064982" lon="-3.1384960016"><ele>163</ele><time>2012-09-09T11:38:38Z</time></trkpt>
<trkpt lat="51.8677191416" lon="-3.1386623383"><ele>158</ele><time>2012-09-09T11:39:16Z</time></trkpt>
<trkpt lat="51.8675954819" lon="-3.1387560050"><ele>157</ele><time>2012-09-09T11:39:28Z</time></trkpt>
<trkpt lat="51.8674620310" lon="-3.1388335069"><ele>157</ele><time>2012-09-09T11:39:38Z</time></trkpt>
<trkpt lat="51.8673229853" lon="-3.1388588270"><ele>156</ele><time>2012-09-09T11:39:49Z</time></trkpt>
<trkpt lat="51.8671819687" lon="-3.1389294942"><ele>155</ele><time>2012-09-09T11:39:59Z</time></trkpt>
<trkpt lat="51.8670476913" lon="-3.1389756680"><ele>154</ele><time>2012-09-09T11:40:10Z</time></trkpt>
<trkpt lat="51.8669138590" lon="-3.1390645027"><ele>154</ele><time>2012-09-09T11:40:21Z</time></trkpt>
<trkpt lat="51.8667734782" lon="-3.1391469955"><ele>153</ele><time>2012-09-09T11:40:32Z</time></trkpt>
<trkpt lat="51.8666406631" lon="-3.1392055035"><ele>152</ele><time>2012-09-09T11:40:42Z</time></trkpt>
<trkpt lat="51.8665014903" lon="-3.1392260075"><ele>151</ele><time>2012-09-09T11:40:56Z</time></trkpt>
<trkpt lat="51.8663675308" lon="-3.1391774972"><ele>144</ele><time>2012-09-09T11:41:59Z</time></trkpt>
<trkpt lat="51.8662241618" lon="-3.1391835054"><ele>142</ele><time>2012-09-09T11:42:16Z</time></trkpt>
<trkpt lat="51.8660980225" lon="-3.1390934944"><ele>142</ele><time>2012-09-09T11:42:26Z</time></trkpt>
<trkpt lat="51.8660166423" lon="-3.1389094989"><ele>138</ele><time>2012-09-09T11:43:29Z</time></trkpt>
<trkpt lat="51.8658876419" lon="-3.1390148322"><ele>136</ele><time>2012-09-09T11:43:51Z</time></trkpt>
<trkpt lat="51.8657555262" lon="-3.1390941620"><ele>135</ele><time>2012-09-09T11:44:03Z</time></trkpt>
<trkpt lat="51.8656171799" lon="-3.1391735077"><ele>134</ele><time>2012-09-09T11:44:17Z</time></trkpt>
<trkpt lat="51.8654776891" lon="-3.1392340024"><ele>133</ele><time>2012-09-09T11:44:30Z</time></trkpt>
<trkpt lat="51.8653474808" lon="-3.1393064976"><ele>132</ele><time>2012-09-09T11:44:45Z</time></trkpt>
<trkpt lat="51.8652213415" lon="-3.1394196669"><ele>131</ele><time>2012-09-09T11:45:00Z</time></trkpt>
<trkpt lat="51.8650828044" lon="-3.1394576708"><ele>131</ele><time>2012-09-09T11:45:12Z</time></trkpt>
<trkpt lat="51.8649485270" lon="-3.1395306587"><ele>130</ele><time>2012-09-09T11:45:26Z</time></trkpt>
<trkpt lat="51.8649005254" lon="-3.1397753398"><ele>129</ele><time>2012-09-09T11:45:36Z</time></trkpt>
<trkpt lat="51.8648401896" lon="-3.1399803321"><ele>128</ele><time>2012-09-09T11:45:48Z</time></trkpt>
<trkpt lat="51.8647158305" lon="-3.1400845051"><ele>127</ele><time>2012-09-09T11:45:58Z</time></trkpt>
<trkpt lat="51.8645821889" lon="-3.1401291688"><ele>127</ele><time>2012-09-09T11:46:09Z</time></trkpt>
<trkpt lat="51.8644390106" lon="-3.1401993275"><ele>126</ele><time>2012-09-09T11:46:21Z</time></trkpt>
<trkpt lat="51.8643016815" lon="-3.1402526697"><ele>125</ele><time>2012-09-09T11:46:32Z</time></trkpt>
<trkpt lat="51.8641604741" lon="-3.1402699947"><ele>125</ele><time>2012-09-09T11:46:44Z</time></trkpt>
<trkpt lat="51.8640231450" lon="-3.1402919928"><ele>124</ele><time>2012-09-09T11:46:56Z</time></trkpt>
<trkpt lat="51.8638879776" lon="-3.1403090000"><ele>123</ele><time>2012-09-09T11:47:10Z</time></trkpt>
<trkpt lat="51.8637511571" lon="-3.1403590043"><ele>121</ele><time>2012-09-09T11:47:28Z</time></trkpt>
<trkpt lat="51.8636176427" lon="-3.1404183388"><ele>120</ele><time>2012-09-09T11:47:43Z</time></trkpt>
<trkpt lat="51.8634764989" lon="-3.1404605071"><ele>119</ele><time>2012-09-09T11:47:54Z</time></trkpt>
<trkpt lat="51.8633679708" lon="-3.1403168360"><ele>118</ele><time>2012-09-09T11:48:06Z</time></trkpt>
<trkpt lat="51.8632860184" lon="-3.1401406606"><ele>117</ele><time>2012-09-09T11:48:16Z</time></trkpt>
<trkpt lat="51.8631798426" lon="-3.1399824937"><ele>116</ele><time>2012-09-09T11:48:30Z</time></trkpt>
<trkpt lat="51.8630706787" lon="-3.1398416678"><ele>115</ele><time>2012-09-09T11:48:43Z</time></trkpt>
<trkpt lat="51.8629479726" lon="-3.1397351742"><ele>114</ele><time>2012-09-09T11:48:56Z</time></trkpt>
<trkpt lat="51.8628326416" lon="-3.1396070004"><ele>113</ele><time>2012-09-09T11:49:07Z</time></trkpt>
<trkpt lat="51.8627043406" lon="-3.1394713402"><ele>113</ele><time>2012-09-09T11:49:17Z</time></trkpt>
<trkpt lat="51.8625790278" lon="-3.1393598398"><ele>112</ele><time>2012-09-09T11:49:27Z</time></trkpt>
<trkpt lat="51.8624614716" lon="-3.1392233372"><ele>112</ele><time>2012-09-09T11:49:37Z</time></trkpt>
<trkpt lat="51.8623305003" lon="-3.1391434987"><ele>110</ele><time>2012-09-09T11:49:58Z</time></trkpt>
<trkpt lat="51.8622165044" lon="-3.1390024980"><ele>110</ele><time>2012-09-09T11:50:10Z</time></trkpt>
<trkpt lat="51.8621201833" lon="-3.1388466676"><ele>109</ele><time>2012-09-09T11:50:20Z</time></trkpt>
<trkpt lat="51.8620151520" lon="-3.1386763255"><ele>108</ele><time>2012-09-09T11:50:32Z</time></trkpt>
<trkpt lat="51.8618941625" lon="-3.1385483265"><ele>107</ele><time>2012-09-09T11:50:45Z</time></trkpt>
<trkpt lat="51.8617884954" lon="-3.1383886655"><ele>107</ele><time>2012-09-09T11:50:58Z</time></trkpt>
<trkpt lat="51.8616756439" lon="-3.1382443269"><ele>107</ele><time>2012-09-09T11:51:10Z</time></trkpt>
<trkpt lat="51.8615808487" lon="-3.1380809943"><ele>106</ele><time>2012-09-09T11:51:21Z</time></trkpt>
<trkpt lat="51.8614863078" lon="-3.1379055023"><ele>106</ele><time>2012-09-09T11:51:33Z</time></trkpt>
<trkpt lat="51.8613918304" lon="-3.1377243360"><ele>106</ele><time>2012-09-09T11:51:44Z</time></trkpt>
<trkpt lat="51.8612981796" lon="-3.1375565052"><ele>106</ele><time>2012-09-09T11:51:55Z</time></trkpt>
<trkpt lat="51.8611738205" lon="-3.1374648412"><ele>105</ele><time>2012-09-09T11:52:06Z</time></trkpt>
<trkpt lat="51.8610478083" lon="-3.1373826663"><ele>105</ele><time>2012-09-09T11:52:16Z</time></trkpt>
<trkpt lat="51.8609179815" lon="-3.1373203278"><ele>105</ele><time>2012-09-09T11:52:26Z</time></trkpt>
<trkpt lat="51.8607721965" lon="-3.1373076598"><ele>105</ele><time>2012-09-09T11:52:37Z</time></trkpt>
<trkpt lat="51.8606189728" lon="-3.1372986635"><ele>104</ele><time>2012-09-09T11:52:47Z</time></trkpt>
<trkpt lat="51.8604823430" lon="-3.1373461723"><ele>104</ele><time>2012-09-09T11:52:58Z</time></trkpt>
<trkpt lat="51.8603493373" lon="-3.1373938402"><ele>104</ele><time>2012-09-09T11:53:09Z</time></trkpt>
<trkpt lat="51.8602008184" lon="-3.1374234994"><ele>104</ele><time>2012-09-09T11:53:21Z</time></trkpt>
<trkpt lat="51.8600599925" lon="-3.1374036630"><ele>104</ele><time>2012-09-09T11:53:33Z</time></trkpt>
<trkpt lat="51.8598826726" lon="-3.1373976707"><ele>103</ele><time>2012-09-09T11:53:43Z</time></trkpt>
<trkpt lat="51.8597469966" lon="-3.1373435020"><ele>103</ele><time>2012-09-09T11:53:54Z</time></trkpt>
<trkpt lat="51.8596131643" lon="-3.1372973283"><ele>103</ele><time>2012-09-09T11:54:05Z</time></trkpt>
<trkpt lat="51.8594981511" lon="-3.1371675014"><ele>102</ele><time>2012-09-09T11:54:15Z</time></trkpt>
<trkpt lat="51.8593228022" lon="-3.1370333354"><time>2012-09-09T11:54:34Z</time></trkpt>
<trkpt lat="51.8591618220" lon="-3.1371158282"><ele>101</ele><time>2012-09-09T11:54:44Z</time></trkpt>
<trkpt lat="51.8590241750" lon="-3.1370768388"><ele>101</ele><time>2012-09-09T11:55:00Z</time></trkpt>
<trkpt lat="51.8588794708" lon="-3.1370936712"><ele>100</ele><time>2012-09-09T11:55:18Z</time></trkpt>
<trkpt lat="51.8587643305" lon="-3.1372381687"><ele>100</ele><time>2012-09-09T11:56:06Z</time></trkpt>
<trkpt lat="51.8587393443" lon="-3.1370189985"><ele>100</ele><time>2012-09-09T11:56:19Z</time></trkpt>
<trkpt lat="51.8587063471" lon="-3.1367956638"><ele>100</ele><time>2012-09-09T11:56:34Z</time></trkpt>
<trkpt lat="51.8585981369" lon="-3.1366528352"><ele>100</ele><time>2012-09-09T11:56:48Z</time></trkpt>
<trkpt lat="51.8584658305" lon="-3.1365523338"><ele>100</ele><time>2012-09-09T11:57:02Z</time></trkpt>
<trkpt lat="51.8583560308" lon="-3.1364243348"><ele>100</ele><time>2012-09-09T11:57:13Z</time></trkpt>
<trkpt lat="51.8582498550" lon="-3.1362695058"><ele>100</ele><time>2012-09-09T11:57:26Z</time></trkpt>
<trkpt lat="51.8581461589" lon="-3.1361246745"><ele>100</ele><time>2012-09-09T11:57:37Z</time></trkpt>
<trkpt lat="51.8580230077" lon="-3.1359979947"><ele>99</ele><time>2012-09-09T11:57:49Z</time></trkpt>
<trkpt lat="51.8579261780" lon="-3.1358438333"><ele>99</ele><time>2012-09-09T11:58:00Z</time></trkpt>
<trkpt lat="51.8580193202" lon="-3.1356729984"><ele>99</ele><time>2012-09-09T11:58:18Z</time></trkpt>
<trkpt lat="51.8581191381" lon="-3.1354993343"><ele>99</ele><time>2012-09-09T11:58:29Z</time></trkpt>
<trkpt lat="51.8582668304" lon="-3.1354868412"><ele>99</ele><time>2012-09-09T11:58:50Z</time></trkpt>
<trkpt lat="51.8584041595" lon="-3.1355596701"><ele>99</ele><time>2012-09-09T11:59:02Z</time></trkpt>
<trkpt lat="51.8585329692" lon="-3.1356451670"><ele>99</ele><time>2012-09-09T11:59:14Z</time></trkpt>
</trkseg>
</trk>
</gpx>